YPPD/PHE METAR and TAF weather

Enter ICAO airport designator
Station Type Date Time Source
YPPD METAR 2020/09/25 07:00 UTC NOAA

YPPD 250700Z AUTO 31016KT 9999 // NCD 31/20 Q1010


Station Type Date Time Source
YPPD Decoded METAR 2020/09/25 07:00 UTC NOAA

Port Hedland Pardoo, Australia (YPPD) 20-06S 119-34E 10M
Sep 25, 2020 - 03:00 AM EDT / 2020.09.25 0700 UTC
Wind: from the NW (310 degrees) at 18 MPH (16 KT):0
Visibility: greater than 7 mile(s):0
Temperature: 87 F (31 C)
Dew Point: 68 F (20 C)
Relative Humidity: 52%
Pressure (altimeter): 29.83 in. Hg (1010 hPa)
ob: YPPD 250700Z AUTO 31016KT 9999 // NCD 31/20 Q1010
cycle: 7

Station Type Date Time Source
YPPD TAF 2020/09/25 06:59 UTC NOAA

TAF YPPD 250546Z 2506/2606 31016KT CAVOK
FM251100 27011KT CAVOK
FM251500 23008KT CAVOK
FM260400 29018KT CAVOK

Example: see airport list